createdAt,value
2018-07-24T00:02:08.453Z,21.07
2018-07-24T00:04:37.168Z,21.08
2018-07-24T00:07:07.239Z,21.07
2018-07-24T00:09:35.888Z,21.04
2018-07-24T00:12:04.544Z,20.99
2018-07-24T00:14:33.182Z,20.98
2018-07-24T00:17:01.860Z,20.90
2018-07-24T00:19:30.689Z,20.84
2018-07-24T00:21:59.459Z,20.86
2018-07-24T00:24:28.277Z,20.73
2018-07-24T00:26:56.959Z,20.58
2018-07-24T00:29:25.558Z,20.49
2018-07-24T00:31:54.363Z,20.53
2018-07-24T00:34:23.032Z,20.49
2018-07-24T00:36:52.091Z,20.38
2018-07-24T00:39:20.759Z,20.40
2018-07-24T00:41:49.460Z,20.36
2018-07-24T00:44:18.291Z,20.24
2018-07-24T00:46:46.874Z,20.21
2018-07-24T00:49:18.435Z,20.14
2018-07-24T00:51:47.152Z,20.16
2018-07-24T00:54:15.767Z,20.09
2018-07-24T00:56:44.389Z,20.07
2018-07-24T00:59:13.216Z,20.03
2018-07-24T01:01:41.836Z,20.02
2018-07-24T01:04:12.133Z,19.92
2018-07-24T01:06:41.178Z,19.98
2018-07-24T01:09:11.647Z,19.92
2018-07-24T01:11:40.612Z,19.80
2018-07-24T01:14:10.386Z,19.66
2018-07-24T01:16:38.960Z,19.71
2018-07-24T01:19:07.544Z,19.84
2018-07-24T01:21:36.297Z,19.90
2018-07-24T01:24:04.957Z,19.95
2018-07-24T01:26:33.578Z,19.84
2018-07-24T01:29:02.185Z,19.72
2018-07-24T01:31:30.729Z,19.67
2018-07-24T01:33:59.328Z,19.48
2018-07-24T01:36:27.931Z,19.37
2018-07-24T01:38:56.625Z,19.29
2018-07-24T01:41:26.381Z,19.30
2018-07-24T01:43:54.980Z,19.30
2018-07-24T01:46:23.535Z,19.31
2018-07-24T01:48:52.206Z,19.13
2018-07-24T01:51:21.062Z,19.07
2018-07-24T01:53:49.671Z,19.24
2018-07-24T01:56:18.305Z,19.14
2018-07-24T01:58:46.917Z,19.15
2018-07-24T02:01:15.473Z,19.06
2018-07-24T02:03:44.280Z,19.09
2018-07-24T02:06:13.649Z,18.99
2018-07-24T02:08:43.488Z,18.96
2018-07-24T02:11:12.263Z,19.01
2018-07-24T02:13:40.836Z,18.98
2018-07-24T02:16:09.472Z,19.04
2018-07-24T02:18:38.064Z,18.93
2018-07-24T02:21:06.891Z,18.81
2018-07-24T02:23:35.488Z,18.72
2018-07-24T02:26:04.063Z,18.80
2018-07-24T02:28:32.607Z,18.91
2018-07-24T02:31:01.209Z,19.03
2018-07-24T02:33:29.824Z,18.93
2018-07-24T02:35:58.433Z,18.90
2018-07-24T02:38:27.275Z,18.81
2018-07-24T02:40:55.853Z,18.78
2018-07-24T02:43:24.444Z,18.79
2018-07-24T02:45:53.328Z,18.59
2018-07-24T02:48:21.902Z,18.50
2018-07-24T02:50:52.870Z,18.63
2018-07-24T02:53:21.546Z,18.59
2018-07-24T02:55:50.169Z,18.69
2018-07-24T02:58:18.818Z,18.73
2018-07-24T03:00:47.392Z,18.72
2018-07-24T03:03:15.959Z,18.83
2018-07-24T03:05:44.552Z,18.93
2018-07-24T03:08:13.152Z,18.77
2018-07-24T03:10:41.716Z,18.67
2018-07-24T03:13:10.514Z,18.54
2018-07-24T03:15:39.129Z,18.36
2018-07-24T03:18:07.713Z,18.25
2018-07-24T03:20:36.269Z,18.19
2018-07-24T03:23:04.873Z,18.25
2018-07-24T03:25:33.616Z,18.09
2018-07-24T03:28:02.249Z,18.03
2018-07-24T03:30:30.848Z,17.90
2018-07-24T03:32:59.406Z,17.87
2018-07-24T03:35:28.092Z,18.03
2018-07-24T03:37:56.672Z,18.07
2018-07-24T03:40:25.356Z,18.19
2018-07-24T03:42:54.493Z,18.35
2018-07-24T03:45:23.271Z,18.38
2018-07-24T03:47:51.840Z,18.41
2018-07-24T03:50:20.447Z,18.40
2018-07-24T03:52:49.029Z,18.49
2018-07-24T03:55:17.585Z,18.58
2018-07-24T03:57:46.475Z,18.60
2018-07-24T04:00:15.056Z,18.63
2018-07-24T04:02:43.613Z,18.60
2018-07-24T04:05:12.793Z,18.62
2018-07-24T04:07:42.525Z,18.60
2018-07-24T04:10:11.116Z,18.57
2018-07-24T04:12:39.680Z,18.28
2018-07-24T04:15:08.277Z,18.30
2018-07-24T04:17:37.049Z,18.36
2018-07-24T04:20:05.610Z,18.39
2018-07-24T04:22:34.194Z,18.30
2018-07-24T04:25:02.796Z,18.35
2018-07-24T04:27:31.400Z,18.34
2018-07-24T04:29:59.987Z,18.44
2018-07-24T04:32:28.576Z,18.54
2018-07-24T04:34:57.124Z,18.61
2018-07-24T04:37:25.711Z,18.71
2018-07-24T04:39:54.350Z,18.77
2018-07-24T04:42:23.005Z,18.66
2018-07-24T04:44:51.620Z,18.74
2018-07-24T04:47:21.117Z,18.74
2018-07-24T04:49:49.802Z,18.86
2018-07-24T04:52:18.506Z,18.99
2018-07-24T04:54:47.200Z,19.14
2018-07-24T04:57:15.810Z,19.16
2018-07-24T04:59:44.404Z,19.18
2018-07-24T05:02:13.256Z,19.25
2018-07-24T05:04:41.804Z,19.11
2018-07-24T05:07:10.616Z,19.02
2018-07-24T05:09:39.210Z,19.04
2018-07-24T05:12:07.795Z,19.16
2018-07-24T05:14:36.465Z,19.31
2018-07-24T05:17:05.064Z,19.39
2018-07-24T05:19:33.619Z,19.49
2018-07-24T05:22:02.225Z,19.60
2018-07-24T05:24:30.775Z,19.73
2018-07-24T05:26:59.509Z,19.75
2018-07-24T05:29:28.152Z,19.82
2018-07-24T05:31:56.724Z,19.86
2018-07-24T05:34:25.396Z,19.92
2018-07-24T05:36:53.985Z,20.00
2018-07-24T05:39:23.601Z,20.09
2018-07-24T05:41:52.204Z,20.17
2018-07-24T05:44:20.844Z,20.29
2018-07-24T05:46:49.416Z,20.34
2018-07-24T05:49:18.075Z,20.35
2018-07-24T05:51:46.673Z,20.39
2018-07-24T05:54:15.331Z,20.43
2018-07-24T05:56:43.938Z,20.45
2018-07-24T05:59:12.674Z,20.53
2018-07-24T06:01:41.362Z,20.57
2018-07-24T06:04:10.105Z,20.60
2018-07-24T06:06:39.425Z,20.49
2018-07-24T06:09:09.370Z,20.57
2018-07-24T06:11:38.127Z,20.56
2018-07-24T06:14:06.696Z,20.56
2018-07-24T06:16:35.288Z,20.61
2018-07-24T06:19:03.836Z,20.62
2018-07-24T06:21:32.775Z,20.62
2018-07-24T06:24:01.328Z,20.69
2018-07-24T06:26:30.077Z,20.72
2018-07-24T06:28:58.668Z,20.82
2018-07-24T06:31:27.415Z,20.90
2018-07-24T06:33:56.092Z,21.05
2018-07-24T06:36:24.748Z,21.16
2018-07-24T06:38:53.405Z,21.25
2018-07-24T06:41:22.008Z,21.34
2018-07-24T06:43:50.638Z,21.53
2018-07-24T06:46:19.292Z,21.55
2018-07-24T06:48:47.977Z,21.53
2018-07-24T06:51:16.697Z,21.50
2018-07-24T06:53:45.272Z,21.64
2018-07-24T06:56:13.877Z,21.66
2018-07-24T06:58:42.490Z,21.73
2018-07-24T07:01:11.092Z,21.78
2018-07-24T07:03:39.784Z,22.02
2018-07-24T07:06:08.561Z,22.21
2018-07-24T07:08:37.172Z,22.54
2018-07-24T07:11:05.837Z,22.62
2018-07-24T07:13:34.531Z,22.70
2018-07-24T07:16:03.066Z,22.78
2018-07-24T07:18:31.721Z,22.95
2018-07-24T07:21:00.308Z,23.14
2018-07-24T07:23:28.998Z,23.19
2018-07-24T07:25:57.778Z,23.43
2018-07-24T07:28:27.248Z,23.50
2018-07-24T07:30:55.832Z,23.34
2018-07-24T07:33:24.579Z,23.39
2018-07-24T07:35:53.126Z,23.37
2018-07-24T07:38:21.925Z,23.65
2018-07-24T07:40:50.535Z,23.55
2018-07-24T07:43:19.111Z,23.79
2018-07-24T07:45:47.705Z,24.02
2018-07-24T07:48:16.268Z,24.24
2018-07-24T07:50:45.152Z,24.21
2018-07-24T07:53:13.777Z,24.53
2018-07-24T07:55:42.477Z,24.51
2018-07-24T07:58:11.061Z,24.23
2018-07-24T08:00:39.695Z,23.71
2018-07-24T08:03:08.574Z,23.43
2018-07-24T08:05:40.555Z,23.80
2018-07-24T08:08:09.275Z,24.08
2018-07-24T08:10:38.632Z,24.30
2018-07-24T08:13:07.383Z,24.24
2018-07-24T08:15:36.119Z,24.42
2018-07-24T08:18:04.691Z,24.48
2018-07-24T08:20:33.505Z,24.58
2018-07-24T08:23:02.068Z,24.71
2018-07-24T08:25:30.704Z,25.05
2018-07-24T08:27:59.442Z,25.29
2018-07-24T08:30:28.082Z,25.28
2018-07-24T08:32:56.754Z,25.58
2018-07-24T08:35:25.327Z,25.85
2018-07-24T08:37:53.917Z,25.92
2018-07-24T08:40:22.548Z,25.98
2018-07-24T08:42:51.148Z,25.96
2018-07-24T08:45:19.850Z,26.02
2018-07-24T08:47:48.451Z,26.04
2018-07-24T08:50:17.047Z,25.84
2018-07-24T08:52:45.788Z,25.71
2018-07-24T08:55:15.876Z,25.56
2018-07-24T08:57:44.273Z,25.55
2018-07-24T09:00:12.813Z,25.58
2018-07-24T09:02:41.389Z,25.67
2018-07-24T09:05:10.258Z,25.54
2018-07-24T09:07:38.837Z,25.41
2018-07-24T09:10:07.473Z,25.62
2018-07-24T09:12:36.180Z,25.75
2018-07-24T09:15:05.064Z,25.91
2018-07-24T09:17:33.659Z,25.90
2018-07-24T09:20:02.285Z,25.99
2018-07-24T09:22:30.896Z,26.34
2018-07-24T09:24:59.492Z,26.30
2018-07-24T09:27:28.106Z,26.43
2018-07-24T09:29:56.733Z,26.61
2018-07-24T09:32:25.305Z,26.68
2018-07-24T09:34:53.833Z,26.53
2018-07-24T09:37:22.476Z,26.49
2018-07-24T09:39:51.037Z,26.67
2018-07-24T09:42:19.743Z,27.01
2018-07-24T09:44:48.317Z,27.09
2018-07-24T09:47:17.088Z,27.20
2018-07-24T09:49:45.645Z,27.13
2018-07-24T09:52:14.272Z,27.13
2018-07-24T09:54:42.908Z,27.25
2018-07-24T09:57:11.705Z,26.96
2018-07-24T09:59:40.267Z,26.89
2018-07-24T10:02:08.858Z,26.91
2018-07-24T10:04:37.444Z,26.88
2018-07-24T10:07:06.078Z,26.92
2018-07-24T10:09:34.680Z,26.99
2018-07-24T10:12:06.673Z,26.99
2018-07-24T10:14:35.281Z,26.83
2018-07-24T10:17:04.794Z,27.08
2018-07-24T10:19:33.355Z,27.29
2018-07-24T10:22:01.938Z,27.46
2018-07-24T10:24:30.940Z,27.72
2018-07-24T10:26:59.669Z,27.91
2018-07-24T10:29:28.558Z,27.97
2018-07-24T10:31:57.151Z,28.08
2018-07-24T10:34:25.749Z,28.26
2018-07-24T10:36:54.352Z,28.35
2018-07-24T10:39:22.968Z,28.11
2018-07-24T10:41:51.543Z,28.00
2018-07-24T10:44:20.137Z,27.98
2018-07-24T10:46:48.697Z,28.06
2018-07-24T10:49:17.326Z,27.89
2018-07-24T10:51:46.160Z,27.99
2018-07-24T10:54:14.720Z,28.29
2018-07-24T10:56:43.364Z,28.45
2018-07-24T10:59:11.964Z,28.59
2018-07-24T11:01:40.602Z,28.52
2018-07-24T11:04:09.170Z,28.32
2018-07-24T11:06:37.895Z,28.19
2018-07-24T11:09:09.017Z,28.07
2018-07-24T11:11:37.722Z,28.12
2018-07-24T11:14:06.447Z,28.15
2018-07-24T11:16:35.065Z,28.46
2018-07-24T11:19:03.740Z,28.74
2018-07-24T11:21:32.423Z,29.07
2018-07-24T11:24:01.094Z,29.03
2018-07-24T11:26:29.705Z,28.88
2018-07-24T11:28:58.287Z,28.75
2018-07-24T11:31:26.949Z,28.62
2018-07-24T11:33:55.607Z,28.62
2018-07-24T11:36:24.438Z,28.75
2018-07-24T11:38:53.033Z,29.10
2018-07-24T11:41:21.640Z,29.47
2018-07-24T11:43:50.179Z,29.61
2018-07-24T11:46:18.819Z,29.73
2018-07-24T11:48:47.457Z,29.80
2018-07-24T11:51:16.069Z,29.81
2018-07-24T11:53:44.607Z,29.66
2018-07-24T11:56:13.204Z,29.68
2018-07-24T11:58:41.892Z,29.63
2018-07-24T12:01:10.473Z,29.13
2018-07-24T12:03:39.154Z,29.29
2018-07-24T12:06:07.721Z,29.44
2018-07-24T12:08:36.277Z,29.80
2018-07-24T12:11:06.514Z,30.06
2018-07-24T12:13:38.370Z,30.09
2018-07-24T12:16:07.012Z,30.32
2018-07-24T12:18:36.387Z,30.45
2018-07-24T12:21:05.041Z,30.42
2018-07-24T12:23:33.617Z,30.38
2018-07-24T12:26:02.159Z,30.06
2018-07-24T12:28:30.753Z,29.98
2018-07-24T12:30:59.343Z,29.84
2018-07-24T12:33:28.027Z,29.77
2018-07-24T12:35:56.655Z,29.71
2018-07-24T12:38:25.240Z,29.69
2018-07-24T12:40:53.841Z,29.89
2018-07-24T12:43:22.438Z,30.14
2018-07-24T12:45:51.032Z,30.24
2018-07-24T12:48:19.631Z,30.51
2018-07-24T12:50:48.151Z,30.47
2018-07-24T12:53:16.708Z,30.49
2018-07-24T12:55:45.441Z,30.65
2018-07-24T12:58:14.025Z,30.73
2018-07-24T13:00:42.578Z,30.96
2018-07-24T13:03:11.231Z,30.19
2018-07-24T13:05:39.782Z,30.38
2018-07-24T13:08:08.360Z,30.50
2018-07-24T13:10:37.004Z,30.55
2018-07-24T13:13:05.632Z,30.09
2018-07-24T13:15:34.415Z,29.85
2018-07-24T13:18:03.136Z,29.83
2018-07-24T13:20:31.820Z,29.74
2018-07-24T13:23:00.432Z,29.75
2018-07-24T13:25:29.505Z,29.75
2018-07-24T13:27:58.108Z,29.38
2018-07-24T13:30:26.695Z,29.18
2018-07-24T13:32:55.307Z,29.26
2018-07-24T13:35:24.045Z,29.28
2018-07-24T13:37:52.591Z,29.32
2018-07-24T13:40:21.491Z,29.45
2018-07-24T13:42:50.084Z,29.84
2018-07-24T13:45:18.622Z,30.22
2018-07-24T13:47:47.156Z,30.46
2018-07-24T13:50:15.836Z,30.53
2018-07-24T13:52:44.376Z,30.80
2018-07-24T13:55:13.121Z,30.33
2018-07-24T13:57:41.807Z,30.27
2018-07-24T14:00:10.398Z,30.05
2018-07-24T14:02:39.083Z,29.69
2018-07-24T14:05:07.900Z,29.59
2018-07-24T14:07:37.257Z,29.69
2018-07-24T14:10:07.016Z,30.17
2018-07-24T14:12:35.663Z,30.61
2018-07-24T14:15:04.315Z,30.96
2018-07-24T14:17:32.876Z,30.93
2018-07-24T14:20:01.512Z,30.89
2018-07-24T14:22:30.071Z,30.70
2018-07-24T14:24:58.651Z,30.74
2018-07-24T14:27:27.220Z,30.91
2018-07-24T14:29:55.772Z,31.11
2018-07-24T14:32:24.507Z,31.38
2018-07-24T14:34:53.108Z,31.30
2018-07-24T14:37:21.689Z,31.18
2018-07-24T14:39:50.231Z,31.23
2018-07-24T14:42:18.816Z,31.31
2018-07-24T14:44:47.351Z,31.33
2018-07-24T14:47:16.333Z,31.40
2018-07-24T14:49:44.936Z,31.23
2018-07-24T14:52:13.487Z,31.07
2018-07-24T14:54:42.421Z,31.14
2018-07-24T14:57:11.229Z,31.44
2018-07-24T14:59:39.869Z,31.52
2018-07-24T15:02:08.488Z,31.51
2018-07-24T15:04:37.233Z,31.31
2018-07-24T15:07:05.744Z,31.13
2018-07-24T15:09:34.381Z,31.03
2018-07-24T15:12:02.954Z,30.77
2018-07-24T15:14:31.532Z,30.63
2018-07-24T15:17:00.131Z,30.74
2018-07-24T15:19:28.712Z,30.89
2018-07-24T15:21:57.301Z,30.96
2018-07-24T15:24:25.850Z,30.76
2018-07-24T15:26:54.411Z,30.38
2018-07-24T15:29:23.109Z,30.06
2018-07-24T15:31:51.722Z,30.18
2018-07-24T15:34:20.791Z,30.38
2018-07-24T15:36:49.301Z,30.54
2018-07-24T15:39:18.165Z,30.71
2018-07-24T15:41:46.791Z,30.70
2018-07-24T15:44:15.332Z,30.53
2018-07-24T15:46:44.022Z,30.37
2018-07-24T15:49:12.673Z,30.20
2018-07-24T15:51:41.318Z,30.16
2018-07-24T15:54:09.883Z,29.89
2018-07-24T15:56:38.437Z,29.87
2018-07-24T15:59:07.109Z,29.84
2018-07-24T16:01:35.708Z,29.63
2018-07-24T16:04:04.355Z,29.64
2018-07-24T16:06:32.946Z,29.61
2018-07-24T16:09:01.499Z,29.31
2018-07-24T16:11:31.307Z,29.49
2018-07-24T16:13:59.928Z,29.55
2018-07-24T16:16:28.579Z,29.49
2018-07-24T16:18:57.252Z,29.59
2018-07-24T16:21:25.838Z,29.65
2018-07-24T16:23:54.463Z,29.67
2018-07-24T16:26:23.078Z,29.52
2018-07-24T16:28:51.691Z,29.66
2018-07-24T16:31:20.442Z,29.71
2018-07-24T16:33:48.989Z,29.68
2018-07-24T16:36:17.563Z,29.64
2018-07-24T16:38:46.172Z,29.85
2018-07-24T16:41:14.880Z,29.82
2018-07-24T16:43:43.460Z,29.98
2018-07-24T16:46:12.075Z,30.03
2018-07-24T16:48:40.659Z,30.04
2018-07-24T16:51:09.253Z,29.93
2018-07-24T16:53:37.890Z,29.51
2018-07-24T16:56:06.699Z,29.56
2018-07-24T16:58:35.356Z,29.58
2018-07-24T17:01:03.952Z,29.71
2018-07-24T17:03:32.544Z,29.75
2018-07-24T17:06:01.160Z,29.42
2018-07-24T17:08:29.749Z,29.31
2018-07-24T17:10:58.341Z,29.24
2018-07-24T17:13:26.985Z,29.24
2018-07-24T17:15:55.557Z,29.21
2018-07-24T17:18:24.106Z,29.16
2018-07-24T17:20:52.896Z,28.98
2018-07-24T17:23:21.480Z,28.66
2018-07-24T17:25:50.347Z,28.44
2018-07-24T17:28:19.072Z,28.33
2018-07-24T17:30:47.624Z,28.11
2018-07-24T17:33:16.226Z,27.74
2018-07-24T17:35:44.915Z,27.48
2018-07-24T17:38:13.455Z,27.33
2018-07-24T17:40:42.079Z,27.24
2018-07-24T17:43:10.637Z,26.81
2018-07-24T17:45:39.355Z,26.69
2018-07-24T17:48:08.422Z,26.52
2018-07-24T17:50:37.117Z,26.29
2018-07-24T17:53:05.731Z,26.19
2018-07-24T17:55:34.367Z,26.01
2018-07-24T17:58:02.934Z,25.81
2018-07-24T18:00:31.628Z,25.36
2018-07-24T18:03:00.177Z,25.31
2018-07-24T18:05:28.824Z,25.18
2018-07-24T18:07:57.425Z,25.24
2018-07-24T18:10:26.063Z,25.21
2018-07-24T18:12:54.679Z,25.28
2018-07-24T18:15:23.359Z,25.32
2018-07-24T18:17:51.896Z,25.33
2018-07-24T18:20:20.517Z,25.28
2018-07-24T18:22:49.152Z,25.26
2018-07-24T18:25:17.720Z,25.21
2018-07-24T18:27:46.317Z,25.18
2018-07-24T18:30:14.880Z,25.09
2018-07-24T18:32:43.406Z,24.96
2018-07-24T18:35:12.489Z,24.89
2018-07-24T18:37:41.126Z,24.69
2018-07-24T18:40:09.721Z,24.45
2018-07-24T18:42:38.353Z,24.21
2018-07-24T18:45:06.985Z,23.65
2018-07-24T18:47:35.565Z,23.27
2018-07-24T18:50:04.232Z,23.16
2018-07-24T18:52:32.791Z,23.03
2018-07-24T18:55:01.416Z,22.82
2018-07-24T18:57:30.087Z,22.69
2018-07-24T18:59:58.775Z,22.56
2018-07-24T19:02:27.396Z,22.50
2018-07-24T19:04:55.964Z,22.47
2018-07-24T19:07:24.643Z,22.50
2018-07-24T19:09:53.247Z,22.54
2018-07-24T19:12:21.812Z,22.51
2018-07-24T19:14:50.388Z,22.50
2018-07-24T19:17:19.115Z,22.49
2018-07-24T19:19:47.616Z,22.36
2018-07-24T19:22:16.232Z,22.26
2018-07-24T19:24:44.828Z,22.13
2018-07-24T19:27:13.526Z,22.05
2018-07-24T19:29:42.159Z,22.03
2018-07-24T19:32:10.883Z,21.95
2018-07-24T19:34:39.511Z,22.01
2018-07-24T19:37:08.131Z,21.99
2018-07-24T19:39:36.876Z,21.94
2018-07-24T19:42:05.532Z,22.00
2018-07-24T19:44:34.237Z,21.90
2018-07-24T19:47:02.831Z,21.93
2018-07-24T19:49:31.583Z,21.98
2018-07-24T19:52:00.065Z,21.92
2018-07-24T19:54:28.597Z,21.72
2018-07-24T19:56:57.226Z,21.77
2018-07-24T19:59:25.812Z,21.82
2018-07-24T20:01:54.366Z,21.72
2018-07-24T20:04:23.264Z,21.58
2018-07-24T20:06:52.647Z,21.59
2018-07-24T20:09:21.224Z,21.67
2018-07-24T20:11:49.769Z,21.68
2018-07-24T20:14:18.392Z,21.74
2018-07-24T20:16:47.020Z,21.69
2018-07-24T20:19:15.687Z,21.75
2018-07-24T20:21:44.269Z,21.75
2018-07-24T20:24:12.876Z,21.80
2018-07-24T20:26:41.582Z,21.75
2018-07-24T20:29:10.339Z,21.71
2018-07-24T20:31:39.010Z,21.72
2018-07-24T20:34:07.711Z,21.68
2018-07-24T20:36:36.323Z,21.66
2018-07-24T20:39:08.928Z,21.60
2018-07-24T20:41:37.621Z,21.61
2018-07-24T20:44:06.176Z,21.53
2018-07-24T20:46:34.729Z,21.62
2018-07-24T20:49:03.672Z,21.45
2018-07-24T20:51:33.155Z,21.30
2018-07-24T20:54:01.882Z,21.26
2018-07-24T20:56:30.508Z,21.27
2018-07-24T20:58:59.200Z,21.22
2018-07-24T21:01:27.787Z,21.32
2018-07-24T21:03:56.808Z,21.22
2018-07-24T21:06:25.351Z,21.31
2018-07-24T21:08:53.939Z,21.37
2018-07-24T21:11:22.824Z,21.41
2018-07-24T21:13:51.392Z,21.50
2018-07-24T21:16:20.148Z,21.44
2018-07-24T21:18:49.084Z,21.49
2018-07-24T21:21:18.523Z,21.41
2018-07-24T21:23:47.098Z,21.31
2018-07-24T21:26:15.800Z,21.22
2018-07-24T21:28:44.378Z,21.23
2018-07-24T21:31:13.266Z,21.18
2018-07-24T21:33:41.836Z,21.12
2018-07-24T21:36:10.530Z,21.14
2018-07-24T21:38:39.349Z,21.07
2018-07-24T21:41:08.293Z,21.02
2018-07-24T21:43:36.892Z,20.96
2018-07-24T21:46:05.425Z,20.94
2018-07-24T21:48:34.114Z,20.94
2018-07-24T21:51:02.816Z,21.02
2018-07-24T21:53:31.400Z,21.17
2018-07-24T21:55:59.991Z,21.27
2018-07-24T21:58:28.595Z,21.26
2018-07-24T22:01:02.485Z,21.24
2018-07-24T22:03:31.127Z,21.19
2018-07-24T22:06:00.486Z,21.23
2018-07-24T22:08:30.299Z,21.35
2018-07-24T22:10:58.909Z,21.47
2018-07-24T22:13:27.576Z,21.55
2018-07-24T22:15:56.290Z,21.45
2018-07-24T22:18:24.921Z,21.36
2018-07-24T22:20:53.496Z,21.16
2018-07-24T22:23:22.212Z,21.05
2018-07-24T22:25:50.756Z,21.02
2018-07-24T22:28:19.365Z,20.88
2018-07-24T22:30:48.006Z,20.88
2018-07-24T22:33:17.967Z,20.83
2018-07-24T22:35:46.561Z,20.74
2018-07-24T22:38:15.131Z,20.74
2018-07-24T22:40:43.815Z,20.76
2018-07-24T22:43:13.288Z,20.58
2018-07-24T22:45:42.068Z,19.99
2018-07-24T22:48:10.644Z,19.85
2018-07-24T22:50:39.231Z,20.05
2018-07-24T22:53:07.853Z,20.22
2018-07-24T22:55:36.401Z,20.12
2018-07-24T22:58:05.019Z,19.94
2018-07-24T23:00:33.691Z,19.55
2018-07-24T23:03:02.288Z,19.61
2018-07-24T23:05:31.152Z,19.38
2018-07-24T23:07:59.732Z,19.49
2018-07-24T23:10:33.493Z,19.50
2018-07-24T23:13:03.902Z,19.39
2018-07-24T23:15:32.743Z,19.68
2018-07-24T23:18:01.255Z,19.89
2018-07-24T23:20:29.854Z,20.05
2018-07-24T23:22:58.420Z,20.02
2018-07-24T23:25:27.026Z,19.94
2018-07-24T23:27:55.569Z,19.86
2018-07-24T23:30:24.347Z,19.61
2018-07-24T23:32:52.911Z,19.61
2018-07-24T23:35:21.464Z,19.66
2018-07-24T23:37:50.284Z,19.56
2018-07-24T23:40:18.852Z,19.65
2018-07-24T23:42:47.409Z,19.70
2018-07-24T23:45:15.944Z,19.55
2018-07-24T23:47:44.577Z,19.53
2018-07-24T23:50:13.140Z,19.43
2018-07-24T23:52:41.686Z,19.42
2018-07-24T23:55:10.371Z,19.43
2018-07-24T23:57:38.901Z,19.26
